Time;durP1;ratioP1;P1;durP2;ratioP2;P2;SDS_P1;SDS_P2;PMS_P1;PMS_P2;Temp;Humidity;BMP_temperature;BMP_pressure;BME280_temperature;BME280_humidity;BME280_pressure;Samples;Min_cycle;Max_cycle;Signal;HPM_P1;HPM_P2
2023/05/29 00:01:08;;;;;;;2.63;2.43;;;17.30;99.90;;;;;;4975657;28;20201;-77
2023/05/29 00:03:35;;;;;;;4.17;2.73;;;17.20;99.90;;;;;;4974732;28;20175;-76
2023/05/29 00:06:05;;;;;;;6.77;2.40;;;17.30;99.90;;;;;;5002175;23;20227;-74
2023/05/29 00:08:31;;;;;;;5.23;2.70;;;17.30;99.90;;;;;;4988679;28;20207;-75
2023/05/29 00:10:57;;;;;;;2.70;2.07;;;17.20;99.90;;;;;;4991638;28;20266;-74
2023/05/29 00:13:23;;;;;;;3.37;2.57;;;17.30;99.90;;;;;;4979279;28;20170;-75
2023/05/29 00:15:48;;;;;;;3.70;2.60;;;17.30;99.90;;;;;;4989795;28;20228;-74
2023/05/29 00:18:14;;;;;;;3.47;2.27;;;17.30;99.90;;;;;;4991040;28;20174;-75
2023/05/29 00:20:39;;;;;;;4.63;2.53;;;17.30;99.90;;;;;;4991497;28;20185;-74
2023/05/29 00:23:06;;;;;;;2.90;2.30;;;17.40;99.90;;;;;;4991141;28;20246;-74
2023/05/29 00:25:32;;;;;;;3.63;2.50;;;17.30;99.90;;;;;;4991021;28;20209;-74
2023/05/29 00:27:58;;;;;;;2.93;2.10;;;17.20;99.90;;;;;;4991496;28;20188;-74
2023/05/29 00:30:23;;;;;;;3.87;2.60;;;17.10;99.90;;;;;;4991249;28;20276;-74
2023/05/29 00:32:49;;;;;;;4.00;2.60;;;17.00;99.90;;;;;;4989838;28;20557;-75
2023/05/29 00:35:15;;;;;;;5.33;2.60;;;17.00;99.90;;;;;;4990978;28;20613;-74
2023/05/29 00:37:40;;;;;;;3.07;2.37;;;16.90;99.90;;;;;;4990467;28;20556;-75
2023/05/29 00:40:07;;;;;;;3.80;2.13;;;17.00;99.90;;;;;;4991135;28;20746;-75
2023/05/29 00:42:32;;;;;;;4.20;2.53;;;16.90;99.90;;;;;;4991092;28;20208;-74
2023/05/29 00:44:58;;;;;;;4.97;2.73;;;17.00;99.90;;;;;;4990762;28;20656;-74
2023/05/29 00:47:24;;;;;;;2.57;2.37;;;17.00;99.90;;;;;;4990836;28;20650;-74
2023/05/29 00:49:51;;;;;;;3.47;2.37;;;16.80;99.90;;;;;;4990758;28;20234;-74
2023/05/29 00:52:18;;;;;;;3.60;2.30;;;16.80;99.90;;;;;;4990449;28;20174;-75
2023/05/29 00:54:45;;;;;;;3.13;2.40;;;16.80;99.90;;;;;;4990471;28;20211;-74
2023/05/29 00:57:13;;;;;;;2.73;2.53;;;16.70;99.90;;;;;;4991060;28;20165;-74
2023/05/29 00:59:40;;;;;;;6.23;2.57;;;16.60;99.90;;;;;;4991229;28;20176;-74
2023/05/29 01:02:06;;;;;;;2.70;2.30;;;16.50;99.90;;;;;;4993917;28;20176;-74
2023/05/29 01:04:33;;;;;;;4.80;2.53;;;16.30;99.90;;;;;;4993045;28;20177;-74
2023/05/29 01:07:03;;;;;;;3.10;2.60;;;16.20;99.90;;;;;;4991825;28;20177;-74
2023/05/29 01:09:30;;;;;;;3.57;2.37;;;16.30;99.90;;;;;;4991875;28;20180;-74
2023/05/29 01:12:16;;;;;;;3.30;2.67;;;16.00;99.90;;;;;;4991312;28;20160;-74
2023/05/29 01:14:57;;;;;;;2.77;2.47;;;15.90;99.90;;;;;;4988920;28;20192;-74
2023/05/29 01:17:41;;;;;;;3.63;2.47;;;15.70;99.90;;;;;;4990606;28;20676;-74
2023/05/29 01:20:44;;;;;;;3.63;2.40;;;15.60;99.90;;;;;;4990557;28;20646;-74
2023/05/29 01:23:31;;;;;;;5.50;2.70;;;15.60;99.90;;;;;;4990419;28;20218;-74
2023/05/29 01:26:34;;;;;;;2.67;2.30;;;15.80;99.90;;;;;;4989680;28;20212;-74
2023/05/29 01:29:03;;;;;;;3.57;2.10;;;15.80;99.90;;;;;;4990280;28;20172;-74
2023/05/29 01:31:30;;;;;;;6.83;2.40;;;15.70;99.90;;;;;;4990434;28;20180;-74
2023/05/29 01:33:58;;;;;;;2.87;2.37;;;15.50;99.90;;;;;;4990259;28;20212;-74
2023/05/29 01:36:24;;;;;;;3.80;2.23;;;15.50;99.90;;;;;;4988795;28;20577;-74
2023/05/29 01:38:51;;;;;;;2.10;1.90;;;15.60;99.90;;;;;;4989882;28;20563;-74
2023/05/29 01:41:18;;;;;;;4.33;2.30;;;15.60;99.90;;;;;;4990179;28;20718;-74
2023/05/29 01:43:46;;;;;;;3.20;2.40;;;15.60;99.90;;;;;;4988291;28;20180;-75
2023/05/29 01:46:13;;;;;;;2.77;2.40;;;15.50;99.90;;;;;;4989981;28;20763;-74
2023/05/29 01:48:42;;;;;;;2.53;2.27;;;15.50;99.90;;;;;;4989833;28;20192;-74
2023/05/29 01:51:12;;;;;;;2.20;2.00;;;15.40;99.90;;;;;;4990296;28;20249;-74
2023/05/29 01:53:38;;;;;;;3.63;2.10;;;15.20;99.90;;;;;;4990212;28;20606;-74
2023/05/29 01:56:05;;;;;;;3.97;2.60;;;15.10;99.90;;;;;;4988410;28;20196;-74
2023/05/29 01:58:32;;;;;;;3.70;2.40;;;;;;;;;;4989868;28;20177;-74
2023/05/29 02:00:58;;;;;;;2.97;2.57;;;14.80;99.90;;;;;;4990044;28;20263;-74
2023/05/29 02:03:24;;;;;;;2.50;2.30;;;14.70;99.90;;;;;;4989733;28;20593;-75
2023/05/29 02:05:50;;;;;;;2.27;2.07;;;14.80;99.90;;;;;;4989328;28;20779;-74
2023/05/29 02:08:15;;;;;;;9.37;2.50;;;14.60;99.90;;;;;;4989359;28;20631;-74
2023/05/29 02:10:41;;;;;;;2.87;2.20;;;14.60;99.90;;;;;;4968353;28;20174;-75
2023/05/29 02:13:06;;;;;;;2.10;1.90;;;14.50;99.90;;;;;;4984124;28;20204;-75
2023/05/29 02:15:32;;;;;;;3.87;2.30;;;14.30;99.90;;;;;;4989315;28;20250;-74
2023/05/29 02:18:00;;;;;;;4.47;2.70;;;;;;;;;;4989722;28;20200;-74
2023/05/29 02:20:26;;;;;;;2.40;2.20;;;13.90;99.90;;;;;;4989876;28;20176;-74
2023/05/29 02:22:52;;;;;;;3.90;2.47;;;14.20;99.90;;;;;;4987987;28;20681;-74
2023/05/29 02:25:18;;;;;;;3.17;2.43;;;14.20;99.90;;;;;;4989094;28;20204;-75
2023/05/29 02:27:43;;;;;;;3.20;2.27;;;14.20;99.90;;;;;;4989016;28;20169;-74
2023/05/29 02:30:09;;;;;;;4.43;3.00;;;14.10;99.90;;;;;;4989858;28;20266;-74
2023/05/29 02:32:35;;;;;;;4.57;2.77;;;13.70;99.90;;;;;;4987414;28;20545;-75
2023/05/29 02:35:00;;;;;;;4.13;2.40;;;13.70;99.90;;;;;;4989048;28;20227;-74
2023/05/29 02:37:26;;;;;;;3.53;2.20;;;13.80;99.90;;;;;;4987957;28;20173;-75
2023/05/29 02:39:52;;;;;;;4.60;2.80;;;13.90;99.90;;;;;;4989328;28;20180;-74
2023/05/29 02:42:17;;;;;;;2.83;2.50;;;13.90;99.90;;;;;;4989442;28;20188;-74
2023/05/29 02:44:43;;;;;;;3.60;2.67;;;13.40;99.90;;;;;;4988682;28;20232;-74
2023/05/29 02:47:08;;;;;;;5.13;2.37;;;13.60;99.90;;;;;;4989102;28;20181;-74
2023/05/29 02:49:34;;;;;;;3.67;2.90;;;13.20;99.90;;;;;;4988119;28;20187;-74
2023/05/29 02:52:00;;;;;;;4.17;2.53;;;13.10;99.90;;;;;;4989025;28;20619;-75
2023/05/29 02:54:26;;;;;;;5.50;2.70;;;13.30;99.90;;;;;;4987648;28;20180;-74
2023/05/29 02:56:52;;;;;;;5.80;2.80;;;13.20;99.90;;;;;;4987863;28;20549;-74
2023/05/29 02:59:17;;;;;;;3.37;2.90;;;13.10;99.90;;;;;;4989122;28;20184;-75
2023/05/29 03:01:43;;;;;;;3.53;2.77;;;13.00;99.90;;;;;;4987612;28;20176;-74
2023/05/29 03:04:10;;;;;;;3.07;2.47;;;13.00;99.90;;;;;;4988827;28;20199;-74
2023/05/29 03:06:38;;;;;;;3.23;2.80;;;13.10;99.90;;;;;;4987034;28;20253;-74
2023/05/29 03:09:07;;;;;;;3.20;2.87;;;12.80;99.90;;;;;;4989227;28;20173;-74
2023/05/29 03:11:35;;;;;;;5.30;2.87;;;12.60;99.90;;;;;;4988531;28;20173;-74
2023/05/29 03:14:01;;;;;;;5.10;2.90;;;12.40;99.90;;;;;;4988767;28;20298;-75
2023/05/29 03:16:29;;;;;;;4.97;2.70;;;12.20;99.90;;;;;;4988628;28;20280;-74
2023/05/29 03:18:55;;;;;;;3.97;2.93;;;12.50;99.90;;;;;;4989065;28;20263;-74
2023/05/29 03:21:21;;;;;;;4.00;3.07;;;12.40;99.90;;;;;;4989128;28;20260;-74
2023/05/29 03:23:46;;;;;;;5.33;2.83;;;12.30;99.90;;;;;;4990276;28;20265;-74
2023/05/29 03:26:13;;;;;;;3.13;2.83;;;12.30;99.90;;;;;;4991100;28;20308;-74
2023/05/29 03:28:38;;;;;;;4.77;3.23;;;12.50;99.90;;;;;;5005595;28;20548;-74
2023/05/29 03:31:04;;;;;;;3.77;2.83;;;12.10;99.90;;;;;;4989773;28;20182;-76
2023/05/29 03:33:30;;;;;;;4.10;3.00;;;12.20;99.90;;;;;;4984354;28;20173;-73
2023/05/29 03:35:56;;;;;;;4.43;2.93;;;12.10;99.90;;;;;;4989297;28;20233;-75
2023/05/29 03:38:23;;;;;;;4.10;2.67;;;12.10;99.90;;;;;;4988307;28;20457;-75
2023/05/29 03:40:48;;;;;;;3.23;2.63;;;12.00;99.90;;;;;;4988733;28;20195;-75
2023/05/29 03:43:14;;;;;;;6.03;2.60;;;11.80;99.90;;;;;;4988787;28;20176;-75
2023/05/29 03:45:40;;;;;;;3.87;2.90;;;11.90;99.90;;;;;;4991480;28;20211;-75
2023/05/29 03:48:05;;;;;;;7.43;2.93;;;11.80;99.90;;;;;;4991752;28;20177;-75
2023/05/29 03:50:31;;;;;;;3.93;3.00;;;11.80;99.90;;;;;;4991915;28;20239;-76
2023/05/29 03:52:56;;;;;;;4.43;2.80;;;12.00;99.90;;;;;;4991399;28;20264;-75
2023/05/29 03:55:22;;;;;;;3.10;2.73;;;12.10;99.90;;;;;;4991918;28;20196;-76
2023/05/29 03:57:47;;;;;;;4.37;2.97;;;12.00;99.90;;;;;;4991759;28;20183;-75
2023/05/29 04:00:13;;;;;;;4.80;3.27;;;11.90;99.90;;;;;;4992063;28;20526;-75
2023/05/29 04:02:39;;;;;;;5.47;3.47;;;12.00;99.90;;;;;;4990119;28;20223;-75
2023/05/29 04:05:06;;;;;;;4.93;2.93;;;12.00;99.90;;;;;;4991198;28;20212;-75
2023/05/29 04:07:32;;;;;;;5.93;2.90;;;12.00;99.90;;;;;;4991601;28;20177;-75
2023/05/29 04:09:58;;;;;;;5.50;3.37;;;12.10;99.90;;;;;;4993284;28;20176;-75
2023/05/29 04:12:23;;;;;;;3.43;2.93;;;12.10;99.90;;;;;;4994778;28;20446;-75
2023/05/29 04:14:49;;;;;;;3.23;2.87;;;11.80;99.90;;;;;;4993719;28;20693;-75
2023/05/29 04:17:14;;;;;;;4.33;3.07;;;11.90;99.90;;;;;;4992754;28;20181;-75
2023/05/29 04:19:40;;;;;;;3.93;2.90;;;11.90;99.90;;;;;;4990636;28;20546;-75
2023/05/29 04:22:06;;;;;;;3.93;3.00;;;12.00;99.90;;;;;;4991582;28;20169;-75
2023/05/29 04:24:32;;;;;;;3.87;3.20;;;12.00;99.90;;;;;;4991043;28;20545;-75
2023/05/29 04:27:00;;;;;;;4.17;3.13;;;12.00;99.90;;;;;;4991335;28;20188;-75
2023/05/29 04:29:26;;;;;;;6.30;3.20;;;12.00;99.90;;;;;;4990132;28;20165;-75
2023/05/29 04:31:51;;;;;;;2.97;2.47;;;12.30;99.90;;;;;;4990810;28;20720;-75
2023/05/29 04:34:17;;;;;;;3.07;2.70;;;12.20;99.90;;;;;;4990889;28;20255;-75
2023/05/29 04:36:43;;;;;;;5.47;3.10;;;12.40;99.90;;;;;;4991107;28;20252;-75
2023/05/29 04:39:09;;;;;;;3.70;3.20;;;12.50;99.90;;;;;;4991102;28;20809;-75
2023/05/29 04:41:35;;;;;;;3.37;2.80;;;12.30;99.90;;;;;;4990964;28;20187;-75
2023/05/29 04:44:01;;;;;;;2.97;2.67;;;12.30;99.90;;;;;;4989600;28;20169;-75
2023/05/29 04:46:27;;;;;;;6.70;3.30;;;12.40;99.90;;;;;;4991108;28;20215;-75
2023/05/29 04:48:53;;;;;;;4.97;2.90;;;12.60;99.90;;;;;;4990609;28;20654;-75
2023/05/29 04:51:22;;;;;;;3.33;2.97;;;13.50;99.90;;;;;;4989876;28;20176;-75
2023/05/29 04:53:51;;;;;;;3.47;2.63;;;15.00;99.90;;;;;;4990320;28;20594;-75
2023/05/29 04:56:18;;;;;;;5.17;2.70;;;15.00;99.90;;;;;;4977525;28;20242;-75
2023/05/29 04:58:44;;;;;;;3.73;3.03;;;15.40;99.90;;;;;;4990047;28;20194;-74
2023/05/29 05:01:14;;;;;;;3.83;2.90;;;16.10;99.90;;;;;;4989054;28;20177;-75
2023/05/29 05:03:40;;;;;;;3.07;2.80;;;16.40;99.90;;;;;;4962735;28;20173;-75
2023/05/29 05:06:07;;;;;;;3.20;2.53;;;16.30;99.90;;;;;;4988372;28;20209;-75
2023/05/29 05:08:33;;;;;;;2.67;2.30;;;15.50;99.90;;;;;;4979911;28;20209;-75
2023/05/29 05:11:00;;;;;;;5.63;2.63;;;15.40;99.90;;;;;;4988561;28;20164;-75
2023/05/29 05:13:26;;;;;;;3.97;2.40;;;15.40;99.90;;;;;;4981500;28;20196;-75
2023/05/29 05:15:52;;;;;;;3.73;3.27;;;15.30;99.90;;;;;;4988291;28;20568;-75
2023/05/29 05:18:17;;;;;;;3.37;2.60;;;15.50;99.90;;;;;;4982776;28;20616;-75
2023/05/29 05:20:43;;;;;;;3.50;2.40;;;15.80;99.90;;;;;;4988494;28;20173;-75
2023/05/29 05:23:09;;;;;;;3.20;2.50;;;16.00;99.90;;;;;;4977894;28;20178;-75
2023/05/29 05:25:35;;;;;;;2.70;2.50;;;16.10;99.90;;;;;;4988170;28;20203;-75
2023/05/29 05:28:02;;;;;;;4.27;2.50;;;16.20;99.90;;;;;;4986482;28;20178;-74
2023/05/29 05:30:28;;;;;;;4.03;2.43;;;16.30;99.90;;;;;;4988823;28;20571;-74
2023/05/29 05:32:54;;;;;;;4.97;2.50;;;16.60;99.90;;;;;;4987749;28;20177;-75
2023/05/29 05:35:20;;;;;;;2.70;2.50;;;16.60;99.90;;;;;;4988226;28;20695;-75
2023/05/29 05:37:46;;;;;;;2.80;2.53;;;16.70;99.90;;;;;;4989153;28;20177;-75
2023/05/29 05:40:12;;;;;;;3.50;2.73;;;16.90;99.90;;;;;;4987590;28;20247;-74
2023/05/29 05:42:37;;;;;;;3.10;2.00;;;17.10;99.90;;;;;;4990153;28;20521;-75
2023/05/29 05:45:04;;;;;;;2.47;2.23;;;17.50;99.90;;;;;;4987238;28;20261;-74
2023/05/29 05:47:29;;;;;;;2.37;2.00;;;17.70;99.90;;;;;;4989941;28;20171;-75
2023/05/29 05:49:55;;;;;;;2.00;1.87;;;17.60;99.90;;;;;;4987797;28;20175;-75
2023/05/29 05:52:21;;;;;;;3.57;2.60;;;17.60;99.90;;;;;;4988894;28;20644;-74
2023/05/29 05:54:46;;;;;;;3.43;2.50;;;17.60;99.90;;;;;;4976864;28;20191;-74
2023/05/29 05:57:12;;;;;;;4.50;2.70;;;17.40;99.90;;;;;;4990064;28;20693;-75
2023/05/29 05:59:39;;;;;;;2.63;2.27;;;17.40;99.90;;;;;;4977526;28;20182;-74
2023/05/29 06:02:04;;;;;;;3.77;2.27;;;17.30;99.90;;;;;;4990009;28;20211;-74
2023/05/29 06:04:30;;;;;;;5.03;2.43;;;17.40;99.90;;;;;;4985777;28;20174;-74
2023/05/29 06:06:55;;;;;;;3.97;2.43;;;17.40;99.90;;;;;;4988618;28;20206;-74
2023/05/29 06:09:21;;;;;;;4.27;2.30;;;17.40;99.90;;;;;;4982382;28;20179;-74
2023/05/29 06:11:47;;;;;;;4.43;2.57;;;17.50;99.90;;;;;;4989464;28;20578;-74
2023/05/29 06:14:14;;;;;;;3.77;2.47;;;17.60;99.90;;;;;;5004853;23;20222;-79
2023/05/29 06:16:40;;;;;;;3.57;2.30;;;17.60;99.90;;;;;;5047597;28;20191;-77
2023/05/29 06:19:05;;;;;;;4.97;2.67;;;17.60;99.90;;;;;;4980299;28;20175;-78
2023/05/29 06:21:32;;;;;;;2.27;2.07;;;17.60;99.90;;;;;;4990075;28;20206;-78
2023/05/29 06:23:57;;;;;;;2.73;2.27;;;17.70;99.90;;;;;;4973543;28;20196;-78
2023/05/29 06:26:24;;;;;;;4.83;2.17;;;17.80;99.90;;;;;;4959967;28;20291;-78
2023/05/29 06:28:51;;;;;;;2.93;2.27;;;17.80;99.90;;;;;;5025901;28;20207;-77
2023/05/29 06:31:16;;;;;;;2.30;1.93;;;17.80;99.90;;;;;;4970659;29;20181;-77
2023/05/29 06:33:42;;;;;;;3.40;2.23;;;18.00;99.90;;;;;;4957443;28;20213;-75
2023/05/29 06:36:07;;;;;;;4.63;2.40;;;18.10;99.90;;;;;;4958059;28;20584;-78
2023/05/29 06:38:33;;;;;;;3.17;2.30;;;18.00;99.90;;;;;;5020999;28;20200;-79
2023/05/29 06:40:58;;;;;;;7.13;2.70;;;18.10;99.90;;;;;;4957800;28;20242;-78
2023/05/29 06:43:24;;;;;;;2.50;2.27;;;18.10;99.90;;;;;;4954730;28;20213;-76
2023/05/29 06:45:49;;;;;;;3.57;2.40;;;18.30;99.90;;;;;;5021392;28;20216;-79
2023/05/29 06:48:15;;;;;;;4.50;2.40;;;18.20;99.90;;;;;;4956822;28;20186;-77
2023/05/29 06:50:40;;;;;;;3.37;2.03;;;18.10;99.90;;;;;;5023267;28;20189;-78
2023/05/29 06:53:06;;;;;;;4.17;2.30;;;18.20;99.90;;;;;;4958380;28;20674;-78
2023/05/29 06:55:31;;;;;;;3.97;2.53;;;18.20;99.90;;;;;;4949662;28;20264;-78
2023/05/29 06:57:57;;;;;;;3.93;2.50;;;18.20;99.90;;;;;;4955479;28;20220;-78
2023/05/29 07:00:22;;;;;;;2.67;2.13;;;18.30;99.90;;;;;;5026826;28;20194;-75
2023/05/29 07:02:48;;;;;;;2.40;2.20;;;18.30;99.90;;;;;;5023863;28;20177;-77
2023/05/29 07:05:14;;;;;;;3.20;2.40;;;18.40;99.90;;;;;;4951920;28;20657;-78
2023/05/29 07:07:39;;;;;;;2.47;2.17;;;18.50;99.90;;;;;;4956737;28;20193;-79
2023/05/29 07:10:06;;;;;;;5.00;2.77;;;18.60;99.90;;;;;;4961857;28;20574;-78
2023/05/29 07:12:31;;;;;;;4.40;2.70;;;18.50;99.90;;;;;;5029021;28;20183;-77
2023/05/29 07:14:57;;;;;;;3.40;2.40;;;18.50;99.90;;;;;;4975171;28;20735;-76
2023/05/29 07:17:22;;;;;;;3.13;2.83;;;18.60;99.90;;;;;;4966983;28;20188;-75
2023/05/29 07:19:49;;;;;;;2.57;2.23;;;18.60;99.90;;;;;;4960988;28;20182;-78
2023/05/29 07:22:15;;;;;;;3.47;2.47;;;18.80;99.90;;;;;;4962954;28;20166;-75
2023/05/29 07:24:41;;;;;;;2.80;2.60;;;18.90;99.90;;;;;;4955011;28;20194;-76
2023/05/29 07:27:06;;;;;;;3.17;2.43;;;18.80;99.90;;;;;;4994475;28;20696;-79
2023/05/29 07:29:32;;;;;;;2.90;2.70;;;18.90;99.90;;;;;;4959140;28;20663;-77
2023/05/29 07:31:57;;;;;;;3.97;2.33;;;19.00;99.90;;;;;;5024373;28;20251;-77
2023/05/29 07:34:23;;;;;;;3.30;2.50;;;19.10;99.90;;;;;;4961070;28;20578;-77
2023/05/29 07:37:04;;;;;;;3.73;2.70;;;19.10;99.90;;;;;;4954864;28;20269;-78
2023/05/29 07:39:30;;;;;;;2.85;2.53;;;19.30;99.90;;;;;;5024835;28;20182;-76
2023/05/29 07:41:56;;;;;;;3.58;2.40;;;19.40;99.90;;;;;;4958964;28;20238;-78
2023/05/29 07:44:21;;;;;;;3.35;2.40;;;19.40;99.90;;;;;;4990833;28;20202;-78
2023/05/29 07:46:47;;;;;;;3.20;2.42;;;19.40;99.90;;;;;;4958056;28;20205;-76
2023/05/29 07:49:12;;;;;;;6.10;2.63;;;19.40;99.90;;;;;;4959631;28;20204;-77
2023/05/29 07:51:38;;;;;;;3.17;2.65;;;19.30;99.90;;;;;;5021383;28;20178;-76
2023/05/29 07:54:05;;;;;;;3.53;2.20;;;19.50;99.90;;;;;;5040579;28;20202;-76
2023/05/29 07:56:30;;;;;;;2.85;2.65;;;19.50;99.90;;;;;;5048473;28;20181;-77
2023/05/29 07:58:56;;;;;;;6.35;2.60;;;19.80;99.90;;;;;;4968188;28;20669;-77
2023/05/29 08:01:23;;;;;;;2.40;2.17;;;19.80;99.90;;;;;;5023538;28;20182;-77
2023/05/29 08:03:48;;;;;;;3.88;2.67;;;19.90;99.90;;;;;;4972190;28;20285;-74
2023/05/29 08:06:14;;;;;;;3.42;2.38;;;19.80;99.90;;;;;;5029120;28;20230;-77
2023/05/29 08:08:39;;;;;;;3.58;2.55;;;19.90;99.90;;;;;;4967255;28;20186;-75
2023/05/29 08:11:06;;;;;;;4.45;2.70;;;19.90;99.90;;;;;;5017159;28;20184;-75
2023/05/29 08:13:31;;;;;;;4.70;2.92;;;20.00;99.90;;;;;;4957014;28;20592;-77
2023/05/29 08:15:58;;;;;;;4.80;2.50;;;20.10;99.90;;;;;;5021408;28;20178;-77
2023/05/29 08:18:25;;;;;;;2.63;2.42;;;20.30;99.90;;;;;;4955610;28;20570;-76
2023/05/29 08:20:51;;;;;;;3.33;2.47;;;20.50;99.90;;;;;;5026838;28;20185;-77
2023/05/29 08:23:16;;;;;;;2.38;2.17;;;20.40;99.90;;;;;;4957612;28;20200;-77
2023/05/29 08:25:42;;;;;;;3.13;2.30;;;20.30;99.90;;;;;;4950639;28;20312;-77
2023/05/29 08:28:07;;;;;;;2.53;2.33;;;20.20;99.90;;;;;;5035088;28;20170;-78
2023/05/29 08:30:33;;;;;;;4.53;2.38;;;20.60;99.90;;;;;;5031097;28;20181;-76
2023/05/29 08:32:58;;;;;;;4.03;2.30;;;20.60;99.90;;;;;;4955890;28;20264;-78
2023/05/29 08:35:24;;;;;;;3.42;2.55;;;20.40;99.90;;;;;;4960249;28;20205;-77
2023/05/29 08:37:50;;;;;;;2.35;2.15;;;20.70;99.90;;;;;;4967780;28;20249;-77
2023/05/29 08:40:15;;;;;;;3.05;2.28;;;20.90;99.90;;;;;;4955593;28;20182;-76
2023/05/29 08:42:47;;;;;;;5.57;2.75;;;21.10;99.90;;;;;;5021398;28;20552;-76
2023/05/29 08:45:14;;;;;;;2.92;2.40;;;21.00;99.90;;;;;;5021066;28;20198;-77
2023/05/29 08:47:40;;;;;;;3.35;3.05;;;21.00;99.90;;;;;;5023343;28;20178;-76
2023/05/29 08:50:07;;;;;;;4.70;2.83;;;21.00;99.90;;;;;;5023286;28;20538;-78
2023/05/29 08:52:37;;;;;;;2.70;2.50;;;21.10;99.90;;;;;;4952918;28;20193;-76
2023/05/29 08:55:03;;;;;;;3.53;2.55;;;21.20;99.90;;;;;;5022481;28;20194;-75
2023/05/29 08:57:30;;;;;;;3.65;2.40;;;20.90;99.90;;;;;;5022574;28;20265;-77
2023/05/29 08:59:56;;;;;;;4.78;2.78;;;21.00;99.90;;;;;;4957838;28;20636;-76
2023/05/29 09:02:22;;;;;;;4.20;2.72;;;21.00;99.90;;;;;;4956621;28;20182;-78
2023/05/29 09:04:56;;;;;;;3.17;2.53;;;21.20;99.90;;;;;;4956215;28;20292;-77
2023/05/29 09:07:22;;;;;;;4.32;2.60;;;21.30;99.90;;;;;;4956901;28;20201;-77
2023/05/29 09:09:48;;;;;;;3.58;2.85;;;21.50;99.90;;;;;;5023309;28;20204;-76
2023/05/29 09:12:17;;;;;;;6.43;2.92;;;21.80;99.90;;;;;;5038917;28;20177;-76
2023/05/29 09:14:44;;;;;;;3.00;2.70;;;21.90;99.90;;;;;;4954989;28;20221;-78
2023/05/29 09:17:10;;;;;;;7.10;2.63;;;21.90;99.90;;;;;;4955123;28;20647;-77
2023/05/29 09:19:38;;;;;;;3.33;2.85;;;22.00;99.90;;;;;;5021835;28;20174;-76
2023/05/29 09:22:05;;;;;;;2.67;2.35;;;22.30;99.90;;;;;;4955667;28;20182;-76
2023/05/29 09:24:32;;;;;;;3.42;2.63;;;22.00;99.90;;;;;;5021081;28;20264;-76
2023/05/29 09:26:59;;;;;;;3.08;2.70;;;22.00;99.90;;;;;;4955954;28;20198;-76
2023/05/29 09:29:25;;;;;;;6.10;2.70;;;21.90;99.90;;;;;;5039967;28;20550;-76
2023/05/29 09:31:51;;;;;;;4.05;2.90;;;22.00;99.90;;;;;;4955278;28;20170;-76
2023/05/29 09:34:16;;;;;;;4.70;2.95;;;21.90;99.90;;;;;;5021186;28;20190;-77
2023/05/29 09:36:42;;;;;;;4.65;2.72;;;22.20;99.90;;;;;;4954483;28;20540;-75
2023/05/29 09:39:10;;;;;;;4.38;2.95;;;22.20;99.90;;;;;;4955166;28;20182;-78
2023/05/29 09:41:45;;;;;;;3.35;2.65;;;22.00;99.90;;;;;;4954856;28;20264;-75
2023/05/29 09:44:15;;;;;;;3.65;2.72;;;22.00;99.90;;;;;;5021891;28;20199;-77
2023/05/29 09:46:42;;;;;;;3.78;2.67;;;22.30;99.90;;;;;;4956184;28;20200;-76
2023/05/29 09:49:12;;;;;;;5.63;2.60;;;22.30;99.90;;;;;;4955484;28;20170;-78
2023/05/29 09:51:39;;;;;;;3.88;2.80;;;22.50;99.90;;;;;;5021343;28;20182;-77
2023/05/29 09:54:17;;;;;;;4.00;3.10;;;22.40;99.90;;;;;;4954796;28;20190;-75
2023/05/29 09:56:44;;;;;;;3.88;2.60;;;22.70;99.90;;;;;;4955255;28;20192;-76
2023/05/29 09:59:14;;;;;;;4.47;2.95;;;23.00;99.90;;;;;;4955639;28;20170;-75
2023/05/29 10:01:43;;;;;;;4.05;2.70;;;23.20;99.90;;;;;;5022212;28;20208;-76
2023/05/29 10:04:10;;;;;;;2.70;2.25;;;23.00;99.90;;;;;;4954522;28;20197;-76
2023/05/29 10:06:38;;;;;;;5.03;3.22;;;23.30;99.90;;;;;;4948168;28;20217;-76
2023/05/29 10:09:07;;;;;;;3.35;2.90;;;23.60;99.90;;;;;;5013967;28;20193;-77
2023/05/29 10:11:34;;;;;;;5.45;2.90;;;23.70;99.90;;;;;;4953489;28;20245;-76
2023/05/29 10:14:02;;;;;;;4.38;2.90;;;23.80;99.90;;;;;;5022450;28;20300;-77
2023/05/29 10:16:29;;;;;;;2.72;2.45;;;23.60;99.90;;;;;;5022278;28;20182;-75
2023/05/29 10:18:56;;;;;;;5.05;2.40;;;23.90;99.90;;;;;;4957753;28;20186;-78
2023/05/29 10:21:23;;;;;;;4.53;2.75;;;23.90;99.90;;;;;;4956354;28;20177;-76
2023/05/29 10:23:50;;;;;;;5.20;2.80;;;23.80;99.90;;;;;;5023084;28;20209;-76
2023/05/29 10:26:21;;;;;;;3.70;2.88;;;24.10;99.90;;;;;;4961379;28;20202;-78
2023/05/29 10:28:58;;;;;;;5.43;2.75;;;24.00;99.90;;;;;;4960647;28;20213;-77
2023/05/29 10:31:52;;;;;;;3.58;2.75;;;23.60;99.90;;;;;;4956132;28;20584;-76
2023/05/29 10:34:41;;;;;;;4.63;2.83;;;23.70;99.90;;;;;;5019831;28;20200;-77
2023/05/29 10:37:29;;;;;;;2.72;2.53;;;24.00;99.90;;;;;;4955437;28;20178;-76
2023/05/29 10:40:07;;;;;;;5.18;2.45;;;24.20;99.90;;;;;;5021431;28;20181;-76
2023/05/29 10:42:38;;;;;;;3.63;2.70;;;24.70;99.90;;;;;;5020129;28;20231;-76
2023/05/29 10:45:04;;;;;;;4.05;2.80;;;24.90;98.60;;;;;;4954770;28;20285;-77
2023/05/29 10:47:30;;;;;;;3.40;2.60;;;24.70;99.90;;;;;;5024129;28;20182;-75
2023/05/29 10:50:03;;;;;;;4.30;3.08;;;24.50;99.30;;;;;;5020602;28;20192;-75
2023/05/29 10:52:32;;;;;;;2.72;2.53;;;24.30;99.50;;;;;;4953397;28;20170;-76
2023/05/29 10:54:58;;;;;;;4.28;2.85;;;24.50;99.40;;;;;;4954208;28;20194;-74
2023/05/29 10:57:26;;;;;;;5.20;2.83;;;24.40;97.20;;;;;;4954210;28;20602;-75
2023/05/29 10:59:59;;;;;;;6.47;2.97;;;24.20;97.20;;;;;;4966463;28;20180;-77
2023/05/29 11:02:25;;;;;;;3.42;2.67;;;24.60;99.40;;;;;;4956724;28;20257;-78
2023/05/29 11:05:22;;;;;;;2.70;2.50;;;24.80;97.80;;;;;;4960054;28;20228;-76
2023/05/29 11:07:53;;;;;;;2.70;2.50;;;24.70;96.60;;;;;;4962705;28;20233;-75
2023/05/29 11:10:55;;;;;;;4.05;2.83;;;24.80;96.80;;;;;;4959870;28;20169;-76
2023/05/29 11:13:37;;;;;;;5.32;2.72;;;24.90;95.40;;;;;;4961044;28;20170;-76
2023/05/29 11:16:28;;;;;;;4.22;2.60;;;24.90;94.50;;;;;;4959216;28;20687;-77
2023/05/29 11:18:54;;;;;;;2.75;2.55;;;24.90;95.60;;;;;;5041467;28;20229;-76
2023/05/29 11:21:53;;;;;;;4.72;2.72;;;25.00;93.70;;;;;;4962804;28;20185;-75
2023/05/29 11:24:23;;;;;;;4.07;2.50;;;25.20;97.10;;;;;;5024452;28;20197;-74
2023/05/29 11:26:51;;;;;;;4.22;2.47;;;25.50;93.70;;;;;;4957514;28;20566;-78
2023/05/29 11:29:24;;;;;;;3.75;2.95;;;25.40;94.40;;;;;;5002049;28;20178;-77
2023/05/29 11:31:57;;;;;;;3.47;2.92;;;25.00;93.20;;;;;;5009192;28;20647;-76
2023/05/29 11:34:27;;;;;;;3.42;2.53;;;25.10;92.50;;;;;;4955470;28;20202;-77
2023/05/29 11:36:53;;;;;;;3.00;2.20;;;25.30;93.70;;;;;;4943327;28;20198;-74
2023/05/29 11:39:19;;;;;;;3.50;2.75;;;25.60;92.00;;;;;;5014744;28;20609;-76
2023/05/29 11:41:44;;;;;;;4.20;2.80;;;25.50;90.90;;;;;;5019523;28;20182;-76
2023/05/29 11:44:13;;;;;;;4.55;2.80;;;25.30;91.10;;;;;;5032341;28;20758;-76
2023/05/29 11:46:40;;;;;;;3.15;2.53;;;25.50;92.30;;;;;;5022139;28;20221;-75
2023/05/29 11:49:06;;;;;;;3.65;2.85;;;25.80;90.20;;;;;;4995521;28;20178;-75
2023/05/29 11:51:31;;;;;;;2.72;2.45;;;25.90;90.20;;;;;;5035467;28;20257;-76
2023/05/29 11:54:00;;;;;;;3.92;2.75;;;25.70;92.00;;;;;;4953779;28;20795;-77
2023/05/29 11:56:27;;;;;;;5.13;2.85;;;25.60;90.30;;;;;;4952829;28;20268;-77
2023/05/29 11:58:56;;;;;;;3.20;2.90;;;25.60;90.90;;;;;;5018084;28;20178;-75
2023/05/29 12:01:26;;;;;;;3.47;2.50;;;25.80;89.80;;;;;;4952231;28;20184;-74
2023/05/29 12:03:52;;;;;;;3.47;2.55;;;26.50;88.90;;;;;;4952272;28;20205;-76
2023/05/29 12:06:37;;;;;;;2.78;2.58;;;26.40;88.30;;;;;;4961186;28;20209;-77
2023/05/29 12:09:03;;;;;;;3.53;2.55;;;26.30;88.10;;;;;;5022737;28;20512;-77
2023/05/29 12:11:29;;;;;;;4.25;2.70;;;26.40;82.20;;;;;;5021580;28;20178;-77
2023/05/29 12:14:02;;;;;;;2.75;2.40;;;26.90;80.30;;;;;;5052073;23;20209;-74
2023/05/29 12:16:30;;;;;;;2.88;2.53;;;27.50;76.40;;;;;;5010712;28;20197;-75
2023/05/29 12:18:56;;;;;;;4.78;2.53;;;27.30;73.50;;;;;;5043882;28;20175;-75
2023/05/29 12:21:23;;;;;;;3.50;2.65;;;27.30;74.60;;;;;;5017038;28;20709;-75
2023/05/29 12:23:52;;;;;;;4.82;2.80;;;27.00;73.10;;;;;;5032197;28;20187;-75
2023/05/29 12:26:17;;;;;;;3.17;2.80;;;27.10;73.00;;;;;;5033361;28;20198;-74
2023/05/29 12:28:46;;;;;;;6.00;2.50;;;27.00;71.40;;;;;;5033802;28;20221;-74
2023/05/29 12:31:11;;;;;;;3.65;2.53;;;27.10;72.70;;;;;;5019789;28;20206;-76
2023/05/29 12:33:42;;;;;;;2.78;2.58;;;27.10;68.80;;;;;;5033590;28;20266;-75
2023/05/29 12:36:10;;;;;;;2.60;2.40;;;27.20;67.70;;;;;;5016166;28;20206;-76
2023/05/29 12:38:50;;;;;;;3.03;2.67;;;26.90;70.60;;;;;;5033540;28;20175;-76
2023/05/29 12:41:29;;;;;;;3.03;2.70;;;27.30;68.80;;;;;;5033883;28;20174;-76
2023/05/29 12:43:58;;;;;;;3.30;2.45;;;27.70;69.00;;;;;;5016131;28;20671;-74
2023/05/29 12:46:25;;;;;;;3.80;2.45;;;27.60;65.70;;;;;;5015816;28;20202;-74
2023/05/29 12:48:53;;;;;;;3.78;2.53;;;27.70;67.80;;;;;;5015751;28;20257;-74
2023/05/29 12:51:23;;;;;;;2.45;2.25;;;27.20;64.50;;;;;;5016088;28;20179;-75